Time;durP1;ratioP1;P1;durP2;ratioP2;P2;SDS_P1;SDS_P2;PMS_P1;PMS_P2;Temp;Humidity;BMP_temperature;BMP_pressure;BME280_temperature;BME280_humidity;BME280_pressure;Samples;Min_cycle;Max_cycle;Signal;HPM_P1;HPM_P2
2023/05/03 00:01:32;;;;;;;2.97;2.00;;;10.40;98.00;;;;;;5072252;28;20460;-67
2023/05/03 00:04:00;;;;;;;2.60;1.70;;;10.30;98.00;;;;;;5073564;28;20454;-66
2023/05/03 00:06:28;;;;;;;3.53;2.27;;;10.30;98.00;;;;;;5055716;28;20448;-67
2023/05/03 00:08:55;;;;;;;3.37;2.33;;;10.30;98.00;;;;;;5073129;28;20471;-67
2023/05/03 00:11:22;;;;;;;3.17;1.93;;;10.40;98.00;;;;;;5072859;28;20463;-66
2023/05/03 00:13:49;;;;;;;2.23;1.90;;;10.50;98.00;;;;;;5071822;28;20525;-66
2023/05/03 00:16:16;;;;;;;3.33;1.80;;;10.40;98.00;;;;;;5073437;28;20451;-66
2023/05/03 00:18:45;;;;;;;2.27;1.77;;;10.60;98.00;;;;;;5073179;28;20464;-67
2023/05/03 00:21:12;;;;;;;4.13;2.20;;;10.70;98.00;;;;;;5073424;28;20462;-67
2023/05/03 00:23:39;;;;;;;2.93;1.87;;;10.70;98.00;;;;;;5073028;28;20514;-67
2023/05/03 00:26:06;;;;;;;2.80;1.90;;;10.80;98.00;;;;;;5072841;28;20463;-66
2023/05/03 00:28:33;;;;;;;3.43;2.10;;;10.70;98.00;;;;;;5072956;28;20521;-67
2023/05/03 00:31:07;;;;;;;2.70;2.00;;;10.80;98.00;;;;;;5072559;28;20868;-67
2023/05/03 00:33:34;;;;;;;3.00;1.90;;;10.90;98.00;;;;;;5072541;28;20579;-66
2023/05/03 00:36:09;;;;;;;2.70;1.70;;;11.00;98.00;;;;;;5054889;28;20453;-66
2023/05/03 00:38:36;;;;;;;2.53;1.80;;;10.90;98.00;;;;;;5072752;28;20494;-66
2023/05/03 00:41:03;;;;;;;3.40;2.10;;;11.00;98.00;;;;;;5072570;28;20468;-66
2023/05/03 00:43:34;;;;;;;3.63;2.27;;;11.10;98.00;;;;;;5072337;28;20464;-66
2023/05/03 00:46:03;;;;;;;2.30;1.80;;;10.90;98.00;;;;;;5072581;28;20526;-67
2023/05/03 00:48:30;;;;;;;3.63;2.30;;;10.70;98.00;;;;;;5072434;28;20457;-67
2023/05/03 00:50:59;;;;;;;4.23;2.20;;;10.60;98.00;;;;;;5072421;28;20961;-66
2023/05/03 00:53:30;;;;;;;3.40;2.00;;;10.60;98.00;;;;;;5072204;28;20488;-66
2023/05/03 00:55:59;;;;;;;2.83;2.17;;;10.40;98.00;;;;;;5072402;28;20488;-67
2023/05/03 00:58:26;;;;;;;3.60;2.10;;;10.30;98.00;;;;;;5072510;28;20456;-66
2023/05/03 01:00:53;;;;;;;2.97;1.90;;;10.20;98.00;;;;;;5072136;28;20992;-67
2023/05/03 01:03:20;;;;;;;4.30;2.50;;;10.00;98.00;;;;;;5072426;28;20795;-66
2023/05/03 01:06:03;;;;;;;2.20;1.80;;;10.00;98.00;;;;;;5072190;28;20449;-66
2023/05/03 01:08:38;;;;;;;2.97;1.93;;;10.10;98.00;;;;;;5072266;28;20458;-66
2023/05/03 01:11:10;;;;;;;3.60;2.23;;;10.10;98.00;;;;;;5072498;28;20451;-66
2023/05/03 01:13:45;;;;;;;5.07;2.40;;;10.00;98.00;;;;;;5072175;28;20568;-66
2023/05/03 01:16:18;;;;;;;3.03;2.30;;;10.00;98.00;;;;;;5071338;28;20447;-66
2023/05/03 01:18:48;;;;;;;3.40;2.20;;;10.00;98.00;;;;;;5072266;28;20471;-67
2023/05/03 01:21:18;;;;;;;5.70;2.40;;;10.10;98.00;;;;;;5070591;28;20528;-66
2023/05/03 01:23:58;;;;;;;4.40;2.30;;;10.00;98.00;;;;;;5071382;28;20903;-67
2023/05/03 01:26:27;;;;;;;3.47;2.13;;;10.10;98.00;;;;;;5070695;28;20805;-66
2023/05/03 01:28:55;;;;;;;4.77;2.37;;;10.10;98.00;;;;;;5071962;28;20491;-66
2023/05/03 01:31:29;;;;;;;4.17;2.17;;;10.20;98.00;;;;;;5071952;28;20534;-66
2023/05/03 01:34:08;;;;;;;2.07;1.93;;;10.20;98.00;;;;;;5070599;28;20483;-66
2023/05/03 01:36:36;;;;;;;4.50;2.17;;;10.20;98.00;;;;;;5071787;28;20464;-66
2023/05/03 01:39:09;;;;;;;3.50;2.43;;;10.20;98.00;;;;;;5071692;28;20464;-66
2023/05/03 01:41:41;;;;;;;5.17;2.17;;;10.20;98.00;;;;;;5071587;28;20546;-66
2023/05/03 01:44:10;;;;;;;3.80;2.10;;;10.10;98.00;;;;;;5071720;28;20472;-66
2023/05/03 01:46:45;;;;;;;3.20;2.00;;;9.90;98.00;;;;;;5071788;28;20539;-66
2023/05/03 01:49:12;;;;;;;3.73;2.40;;;9.70;98.00;;;;;;5071527;28;20503;-66
2023/05/03 01:51:39;;;;;;;4.23;2.60;;;9.70;98.00;;;;;;5071650;28;20802;-67
2023/05/03 01:54:06;;;;;;;4.60;2.47;;;9.60;98.00;;;;;;5070347;28;20496;-66
2023/05/03 01:56:37;;;;;;;3.47;2.47;;;9.50;98.00;;;;;;5071768;28;20485;-66
2023/05/03 01:59:04;;;;;;;8.00;2.63;;;9.30;98.00;;;;;;5071677;28;20462;-66
2023/05/03 02:01:31;;;;;;;3.47;2.10;;;9.20;98.00;;;;;;5071703;28;21088;-66
2023/05/03 02:03:58;;;;;;;3.03;2.10;;;9.20;98.00;;;;;;5071810;28;20478;-66
2023/05/03 02:06:26;;;;;;;6.20;2.67;;;9.20;98.00;;;;;;5071704;28;20883;-66
2023/05/03 02:08:53;;;;;;;4.80;2.73;;;9.10;98.00;;;;;;5060851;28;20456;-66
2023/05/03 02:11:20;;;;;;;3.50;2.20;;;9.20;98.00;;;;;;5051846;28;20550;-66
2023/05/03 02:13:50;;;;;;;4.03;2.13;;;9.10;98.00;;;;;;5050212;28;20855;-66
2023/05/03 02:16:17;;;;;;;5.17;2.67;;;9.10;98.00;;;;;;5051307;28;20511;-66
2023/05/03 02:18:44;;;;;;;4.77;2.50;;;8.90;98.00;;;;;;5051091;28;20461;-66
2023/05/03 02:21:12;;;;;;;3.23;2.10;;;8.90;98.00;;;;;;5050240;28;20465;-66
2023/05/03 02:23:39;;;;;;;4.40;2.60;;;8.90;98.00;;;;;;5050106;28;20479;-66
2023/05/03 02:26:07;;;;;;;4.70;2.53;;;8.80;98.00;;;;;;5051281;28;20449;-66
2023/05/03 02:28:34;;;;;;;4.17;2.37;;;8.80;98.00;;;;;;5049955;28;20966;-66
2023/05/03 02:31:06;;;;;;;3.60;2.30;;;8.90;98.00;;;;;;5051166;28;20537;-66
2023/05/03 02:33:33;;;;;;;3.00;2.03;;;9.00;98.00;;;;;;5052008;28;20908;-66
2023/05/03 02:36:00;;;;;;;4.47;2.53;;;9.00;98.00;;;;;;5054798;28;20458;-66
2023/05/03 02:38:27;;;;;;;4.03;2.27;;;9.00;98.00;;;;;;5054855;28;20453;-67
2023/05/03 02:40:54;;;;;;;3.57;2.07;;;9.10;98.00;;;;;;5054568;28;20457;-66
2023/05/03 02:43:21;;;;;;;5.77;2.50;;;9.10;98.00;;;;;;5054675;28;21001;-66
2023/05/03 02:45:48;;;;;;;3.37;2.33;;;9.00;98.00;;;;;;5053467;28;20449;-66
2023/05/03 02:48:17;;;;;;;6.50;2.60;;;9.00;98.00;;;;;;5054805;28;20488;-66
2023/05/03 02:50:44;;;;;;;4.10;2.20;;;8.80;98.00;;;;;;5054591;28;20453;-66
2023/05/03 02:53:11;;;;;;;3.73;2.33;;;8.70;98.00;;;;;;5053587;28;20595;-66
2023/05/03 02:55:39;;;;;;;4.07;2.10;;;8.70;98.00;;;;;;5054688;28;20462;-66
2023/05/03 02:58:06;;;;;;;5.43;2.27;;;8.80;98.00;;;;;;5054731;28;20481;-66
2023/05/03 03:00:33;;;;;;;4.23;2.50;;;8.80;98.00;;;;;;5054723;28;20453;-66
2023/05/03 03:03:00;;;;;;;3.97;2.20;;;8.80;98.00;;;;;;5054802;28;20465;-66
2023/05/03 03:05:30;;;;;;;2.97;2.20;;;8.70;98.00;;;;;;5053554;28;20457;-66
2023/05/03 03:07:57;;;;;;;4.40;2.37;;;8.50;98.00;;;;;;5053251;28;20461;-66
2023/05/03 03:10:24;;;;;;;4.80;2.50;;;8.40;98.00;;;;;;5054479;28;20468;-66
2023/05/03 03:12:51;;;;;;;3.60;2.20;;;8.30;98.00;;;;;;5054247;28;20933;-66
2023/05/03 03:15:18;;;;;;;4.80;2.63;;;8.40;98.00;;;;;;5053201;28;20805;-66
2023/05/03 03:17:45;;;;;;;3.70;2.33;;;8.40;98.00;;;;;;5054038;28;20457;-66
2023/05/03 03:20:12;;;;;;;6.03;2.30;;;8.40;98.00;;;;;;5054190;28;20452;-66
2023/05/03 03:22:42;;;;;;;4.23;2.43;;;8.30;98.00;;;;;;5054055;28;20492;-66
2023/05/03 03:25:10;;;;;;;5.27;2.27;;;8.50;98.00;;;;;;5053949;28;20458;-66
2023/05/03 03:27:38;;;;;;;3.20;2.07;;;8.60;98.00;;;;;;5054013;28;20461;-66
2023/05/03 03:30:07;;;;;;;6.10;2.97;;;8.50;98.00;;;;;;5053842;28;20453;-66
2023/05/03 03:32:34;;;;;;;4.33;2.70;;;8.30;98.00;;;;;;5054058;28;20461;-66
2023/05/03 03:35:01;;;;;;;3.90;2.10;;;8.30;98.00;;;;;;5053761;28;20829;-66
2023/05/03 03:37:28;;;;;;;5.00;2.20;;;8.20;98.00;;;;;;5053996;28;20464;-66
2023/05/03 03:39:57;;;;;;;4.00;2.37;;;8.10;98.00;;;;;;5052589;28;20469;-66
2023/05/03 03:42:24;;;;;;;3.33;2.20;;;8.00;98.00;;;;;;5053684;28;20888;-66
2023/05/03 03:44:53;;;;;;;4.47;2.20;;;8.00;98.00;;;;;;5052885;28;20885;-66
2023/05/03 03:47:21;;;;;;;3.33;2.20;;;8.00;98.00;;;;;;5053691;28;20454;-66
2023/05/03 03:49:47;;;;;;;4.17;2.57;;;8.00;98.00;;;;;;5053539;28;20465;-66
2023/05/03 03:52:15;;;;;;;4.97;2.60;;;8.10;98.00;;;;;;5053759;28;20465;-66
2023/05/03 03:54:42;;;;;;;4.17;2.40;;;8.10;98.00;;;;;;5053629;28;20489;-66
2023/05/03 03:57:10;;;;;;;3.20;2.30;;;8.20;98.00;;;;;;5053655;28;20458;-66
2023/05/03 03:59:37;;;;;;;4.03;2.90;;;8.20;98.00;;;;;;5052337;28;20462;-66
2023/05/03 04:02:05;;;;;;;4.20;2.37;;;8.10;98.00;;;;;;5053681;28;20858;-66
2023/05/03 04:04:32;;;;;;;5.53;2.60;;;7.90;98.00;;;;;;5052225;28;20459;-66
2023/05/03 04:06:59;;;;;;;8.43;3.27;;;7.90;98.00;;;;;;5053193;28;20462;-66
2023/05/03 04:09:26;;;;;;;3.50;2.07;;;7.80;98.00;;;;;;5053373;28;20529;-66
2023/05/03 04:11:53;;;;;;;4.50;2.20;;;7.80;98.00;;;;;;5053064;28;20967;-66
2023/05/03 04:14:21;;;;;;;4.20;2.43;;;7.80;98.00;;;;;;5051940;28;20478;-66
2023/05/03 04:16:49;;;;;;;3.47;1.90;;;7.80;98.00;;;;;;5053007;28;20453;-66
2023/05/03 04:19:17;;;;;;;5.00;2.60;;;7.90;98.00;;;;;;5051702;28;20982;-66
2023/05/03 04:21:44;;;;;;;5.60;2.40;;;7.80;98.00;;;;;;5053015;28;21013;-66
2023/05/03 04:24:16;;;;;;;5.40;2.60;;;7.60;98.00;;;;;;5052868;28;20458;-66
2023/05/03 04:26:43;;;;;;;3.73;2.27;;;7.70;98.00;;;;;;5052981;28;20450;-66
2023/05/03 04:29:10;;;;;;;6.43;2.60;;;7.70;98.00;;;;;;5052777;28;20461;-66
2023/05/03 04:31:39;;;;;;;3.27;2.27;;;7.80;98.00;;;;;;5052848;28;20454;-66
2023/05/03 04:34:06;;;;;;;3.77;2.40;;;7.90;98.00;;;;;;5052299;28;20570;-66
2023/05/03 04:36:34;;;;;;;5.07;2.30;;;7.80;98.00;;;;;;5052698;28;20548;-66
2023/05/03 04:39:01;;;;;;;4.33;2.53;;;7.80;98.00;;;;;;5052443;28;20804;-66
2023/05/03 04:41:28;;;;;;;6.97;2.50;;;7.90;98.00;;;;;;5051545;28;20511;-66
2023/05/03 04:43:55;;;;;;;4.40;2.13;;;8.00;98.00;;;;;;5052320;28;20468;-66
2023/05/03 04:46:22;;;;;;;3.40;2.00;;;7.90;98.00;;;;;;5052544;28;20449;-66
2023/05/03 04:48:51;;;;;;;3.33;2.47;;;8.00;98.00;;;;;;5052628;28;20461;-66
2023/05/03 04:51:18;;;;;;;3.60;2.10;;;8.00;98.00;;;;;;5052502;28;20499;-66
2023/05/03 04:53:45;;;;;;;5.13;2.50;;;7.90;98.00;;;;;;5052494;28;20485;-66
2023/05/03 04:56:12;;;;;;;5.00;3.10;;;8.00;98.00;;;;;;5052589;28;20458;-66
2023/05/03 04:58:43;;;;;;;4.97;2.83;;;7.90;98.00;;;;;;5052417;28;20457;-66
2023/05/03 05:01:10;;;;;;;3.43;2.43;;;7.90;98.00;;;;;;5052292;28;20451;-66
2023/05/03 05:03:37;;;;;;;2.67;2.17;;;8.00;98.00;;;;;;5052309;28;20548;-66
2023/05/03 05:06:08;;;;;;;4.60;2.37;;;8.10;98.00;;;;;;5052131;28;20956;-66
2023/05/03 05:08:35;;;;;;;6.50;2.60;;;8.30;98.00;;;;;;5051004;28;20464;-66
2023/05/03 05:11:04;;;;;;;5.23;2.77;;;8.50;98.00;;;;;;5051972;28;20810;-66
2023/05/03 05:13:31;;;;;;;6.47;2.57;;;8.60;98.00;;;;;;5050700;28;20460;-66
2023/05/03 05:15:58;;;;;;;4.50;2.70;;;8.60;98.00;;;;;;5051891;28;20803;-66
2023/05/03 05:18:25;;;;;;;4.00;2.40;;;8.60;98.00;;;;;;5052047;28;20859;-66
2023/05/03 05:20:52;;;;;;;5.53;2.50;;;8.80;98.00;;;;;;5051855;28;20466;-66
2023/05/03 05:23:21;;;;;;;4.77;2.80;;;8.80;98.00;;;;;;5052113;28;20461;-66
2023/05/03 05:25:48;;;;;;;3.60;2.60;;;8.80;98.00;;;;;;5051673;28;20463;-66
2023/05/03 05:28:15;;;;;;;6.10;2.80;;;9.10;98.00;;;;;;5051683;28;20464;-66
2023/05/03 05:30:42;;;;;;;3.63;2.50;;;9.10;98.00;;;;;;5051732;28;20857;-66
2023/05/03 05:33:10;;;;;;;4.70;2.50;;;9.20;98.00;;;;;;5051823;28;20453;-66
2023/05/03 05:35:37;;;;;;;6.37;2.73;;;9.20;98.00;;;;;;5050535;28;20560;-66
2023/05/03 05:38:04;;;;;;;6.90;3.07;;;9.30;98.00;;;;;;5051932;28;20984;-66
2023/05/03 05:40:32;;;;;;;3.63;2.40;;;9.20;98.00;;;;;;5051497;28;20469;-66
2023/05/03 05:42:59;;;;;;;5.87;2.93;;;9.10;98.00;;;;;;5050847;28;20982;-66
2023/05/03 05:45:27;;;;;;;4.07;2.53;;;9.00;98.00;;;;;;5051118;28;20472;-66
2023/05/03 05:47:54;;;;;;;7.57;2.93;;;9.00;98.00;;;;;;5051371;28;20462;-66
2023/05/03 05:50:21;;;;;;;8.00;3.10;;;9.10;98.00;;;;;;5051209;28;20564;-66
2023/05/03 05:52:51;;;;;;;6.07;3.33;;;9.20;98.00;;;;;;5051245;28;20471;-66
2023/05/03 05:55:18;;;;;;;4.03;2.10;;;9.30;98.00;;;;;;5050842;28;21057;-66
2023/05/03 05:57:47;;;;;;;4.63;3.07;;;9.40;98.00;;;;;;5050935;28;20866;-66
2023/05/03 06:00:16;;;;;;;6.77;2.77;;;9.40;98.00;;;;;;5050921;28;21095;-66
2023/05/03 06:02:43;;;;;;;8.10;3.40;;;9.50;98.00;;;;;;5050854;28;20455;-63
2023/05/03 06:05:11;;;;;;;4.77;2.53;;;9.60;98.00;;;;;;5050749;28;20553;-63
2023/05/03 06:07:39;;;;;;;6.60;3.00;;;9.80;98.00;;;;;;5050817;28;20464;-63
2023/05/03 06:10:07;;;;;;;6.80;3.27;;;9.90;98.00;;;;;;5054284;28;20881;-63
2023/05/03 06:12:35;;;;;;;7.17;2.97;;;10.10;98.00;;;;;;5054762;28;20537;-63
2023/05/03 06:15:04;;;;;;;9.50;3.30;;;10.20;98.00;;;;;;5054595;28;21005;-63
2023/05/03 06:17:31;;;;;;;8.00;3.40;;;10.30;98.00;;;;;;5054564;28;20458;-63
2023/05/03 06:19:58;;;;;;;6.27;3.07;;;10.40;98.00;;;;;;5054760;28;20542;-63
2023/05/03 06:22:25;;;;;;;8.50;2.63;;;10.60;98.00;;;;;;5054843;28;20459;-63
2023/05/03 06:24:53;;;;;;;8.47;3.40;;;10.70;98.00;;;;;;5054559;28;20496;-63
2023/05/03 06:27:20;;;;;;;6.13;3.50;;;10.70;98.00;;;;;;5054784;28;20507;-64
2023/05/03 06:29:48;;;;;;;7.30;3.73;;;10.70;98.00;;;;;;5054640;28;20461;-63
2023/05/03 06:32:18;;;;;;;7.90;3.50;;;10.90;98.00;;;;;;5055590;28;20449;-64
2023/05/03 06:34:54;;;;;;;7.43;3.40;;;10.90;98.00;;;;;;5054505;28;20884;-63
2023/05/03 06:37:22;;;;;;;6.90;3.43;;;10.90;98.00;;;;;;5055311;28;20532;-64
2023/05/03 06:39:50;;;;;;;6.67;3.50;;;11.00;98.00;;;;;;5055230;28;20463;-63
2023/05/03 06:42:17;;;;;;;8.30;4.00;;;11.10;98.00;;;;;;5054224;28;20464;-64
2023/05/03 06:44:44;;;;;;;8.20;3.87;;;11.20;98.00;;;;;;5053947;28;20491;-64
2023/05/03 06:47:11;;;;;;;9.50;3.53;;;11.30;98.00;;;;;;5054366;28;20955;-64
2023/05/03 06:49:40;;;;;;;9.53;4.03;;;11.30;98.00;;;;;;5054570;28;20455;-63
2023/05/03 06:52:08;;;;;;;5.93;3.13;;;11.40;98.00;;;;;;5054352;28;20876;-63
2023/05/03 06:54:35;;;;;;;10.80;3.17;;;11.40;98.00;;;;;;5054007;28;20900;-64
2023/05/03 06:57:03;;;;;;;7.93;3.90;;;11.40;98.00;;;;;;5054040;28;20497;-64
2023/05/03 06:59:30;;;;;;;6.80;3.67;;;11.60;98.00;;;;;;5053981;28;20460;-64
2023/05/03 07:01:57;;;;;;;8.47;3.80;;;11.70;98.00;;;;;;5052796;28;20463;-64
2023/05/03 07:04:24;;;;;;;9.00;3.70;;;11.80;98.00;;;;;;5054086;28;20466;-64
2023/05/03 07:06:53;;;;;;;8.73;3.90;;;11.80;98.00;;;;;;5053766;28;20462;-64
2023/05/03 07:09:20;;;;;;;8.50;3.40;;;11.90;98.00;;;;;;5053168;28;20455;-64
2023/05/03 07:11:49;;;;;;;7.03;3.47;;;12.00;98.00;;;;;;5053757;28;20459;-64
2023/05/03 07:14:16;;;;;;;7.77;3.37;;;12.10;98.00;;;;;;5053669;28;20478;-64
2023/05/03 07:16:43;;;;;;;7.43;3.47;;;12.30;98.00;;;;;;5052822;28;20454;-64
2023/05/03 07:19:10;;;;;;;7.97;3.40;;;12.50;98.00;;;;;;5053623;28;20465;-63
2023/05/03 07:21:38;;;;;;;6.20;3.30;;;12.60;98.00;;;;;;5052821;28;20457;-63
2023/05/03 07:24:07;;;;;;;7.90;3.40;;;12.60;98.00;;;;;;5054074;28;20488;-62
2023/05/03 07:26:34;;;;;;;6.87;3.07;;;12.70;98.00;;;;;;5053255;28;20463;-63
2023/05/03 07:29:01;;;;;;;8.20;3.57;;;12.90;98.00;;;;;;5054064;28;20457;-63
2023/05/03 07:31:28;;;;;;;5.43;3.20;;;12.90;98.00;;;;;;5053805;28;20816;-63
2023/05/03 07:33:55;;;;;;;6.93;3.20;;;12.90;98.00;;;;;;5052336;28;20458;-63
2023/05/03 07:36:23;;;;;;;6.30;3.70;;;13.00;98.00;;;;;;5053913;28;20494;-63
2023/05/03 07:38:50;;;;;;;6.53;3.17;;;13.10;98.00;;;;;;5052761;28;20455;-63
2023/05/03 07:41:18;;;;;;;7.53;3.40;;;13.20;98.00;;;;;;5054066;28;20798;-63
2023/05/03 07:43:46;;;;;;;6.90;3.50;;;13.20;98.00;;;;;;5053716;28;20464;-63
2023/05/03 07:46:13;;;;;;;7.40;3.80;;;13.40;98.00;;;;;;5053588;28;20466;-63
2023/05/03 07:48:40;;;;;;;8.57;4.00;;;13.60;98.00;;;;;;5053501;28;20459;-63
2023/05/03 07:51:07;;;;;;;10.83;4.43;;;13.70;98.00;;;;;;5052399;28;20457;-63
2023/05/03 07:53:35;;;;;;;9.93;3.83;;;13.80;98.00;;;;;;5051937;28;20451;-63
2023/05/03 07:56:02;;;;;;;8.07;3.60;;;13.80;98.00;;;;;;5053360;28;20605;-63
2023/05/03 07:58:31;;;;;;;10.00;4.23;;;14.00;98.00;;;;;;5053120;28;20479;-63
2023/05/03 08:00:58;;;;;;;8.60;4.47;;;14.20;98.00;;;;;;5053353;28;20481;-63
2023/05/03 08:03:25;;;;;;;8.20;3.80;;;14.30;98.00;;;;;;5053281;28;20982;-63
2023/05/03 08:05:52;;;;;;;6.83;3.70;;;14.40;98.00;;;;;;5052752;28;20945;-63
2023/05/03 08:08:19;;;;;;;6.83;3.10;;;14.60;98.00;;;;;;5053133;28;20467;-63
2023/05/03 08:10:46;;;;;;;7.67;3.60;;;14.80;98.00;;;;;;5053056;28;20822;-63
2023/05/03 08:13:13;;;;;;;9.40;3.63;;;14.90;98.00;;;;;;5055608;28;20536;-63
2023/05/03 08:15:44;;;;;;;10.00;4.00;;;15.00;98.00;;;;;;5072797;28;21015;-63
2023/05/03 08:18:11;;;;;;;9.40;4.37;;;15.00;98.00;;;;;;5073050;28;20843;-63
2023/05/03 08:20:39;;;;;;;7.53;3.97;;;15.10;98.00;;;;;;5072794;28;20466;-63
2023/05/03 08:23:06;;;;;;;7.00;3.70;;;15.00;98.00;;;;;;5071805;28;20467;-63
2023/05/03 08:25:36;;;;;;;5.30;2.60;;;14.90;98.00;;;;;;5072582;28;20554;-61
2023/05/03 08:28:03;;;;;;;7.63;3.80;;;15.20;98.00;;;;;;5071660;28;20460;-64
2023/05/03 08:30:30;;;;;;;11.00;4.50;;;15.60;98.00;;;;;;5072760;28;20487;-63
2023/05/03 08:32:58;;;;;;;7.17;3.60;;;15.90;98.00;;;;;;5072526;28;20471;-63
2023/05/03 08:35:26;;;;;;;9.50;5.03;;;16.10;98.00;;;;;;5072720;28;20560;-63
2023/05/03 08:37:56;;;;;;;8.03;3.87;;;16.10;98.00;;;;;;5072921;28;20456;-63
2023/05/03 08:40:24;;;;;;;8.43;4.13;;;16.30;98.00;;;;;;5072749;28;20456;-64
2023/05/03 08:42:53;;;;;;;7.40;4.00;;;16.40;98.00;;;;;;5072114;28;20494;-63
2023/05/03 08:45:20;;;;;;;7.97;3.90;;;16.60;98.00;;;;;;5072542;28;20496;-64
2023/05/03 08:47:54;;;;;;;6.93;3.60;;;16.70;98.00;;;;;;5070980;28;20588;-64
2023/05/03 08:50:24;;;;;;;8.63;4.20;;;16.80;98.00;;;;;;5072291;28;20464;-63
2023/05/03 08:52:51;;;;;;;6.23;3.40;;;16.80;98.00;;;;;;5072179;28;21118;-62
2023/05/03 08:55:18;;;;;;;15.57;4.20;;;16.80;98.00;;;;;;5072021;28;20480;-64
2023/05/03 08:57:45;;;;;;;7.10;3.70;;;16.70;98.00;;;;;;5072082;28;20453;-63
2023/05/03 09:00:14;;;;;;;10.23;4.43;;;16.60;98.00;;;;;;5072149;28;20449;-63
2023/05/03 09:02:41;;;;;;;7.13;3.93;;;16.90;98.00;;;;;;5072029;28;20510;-64
2023/05/03 09:05:34;;;;;;;7.10;4.07;;;17.10;98.00;;;;;;5072014;28;20954;-63
2023/05/03 09:08:02;;;;;;;7.83;3.97;;;17.20;98.00;;;;;;5072048;28;21024;-63
2023/05/03 09:10:29;;;;;;;9.10;4.30;;;17.30;98.00;;;;;;5071887;28;20474;-63
2023/05/03 09:13:02;;;;;;;9.33;4.27;;;17.10;98.00;;;;;;5071872;28;20479;-63
2023/05/03 09:15:30;;;;;;;13.60;4.80;;;16.90;98.00;;;;;;5070573;28;20488;-62
2023/05/03 09:18:14;;;;;;;11.33;4.80;;;16.80;98.00;;;;;;5069567;28;20460;-64
2023/05/03 09:20:50;;;;;;;9.40;4.13;;;16.60;98.00;;;;;;5068168;28;20456;-63
2023/05/03 09:23:18;;;;;;;9.50;4.70;;;16.80;98.00;;;;;;5070620;28;20498;-64
2023/05/03 09:25:50;;;;;;;9.80;4.40;;;16.90;98.00;;;;;;5069715;28;20553;-60
2023/05/03 09:28:18;;;;;;;8.53;4.03;;;16.80;98.00;;;;;;5071465;28;20460;-63
2023/05/03 09:30:52;;;;;;;7.67;3.90;;;17.10;98.00;;;;;;5063877;28;20458;-63
2023/05/03 09:33:29;;;;;;;8.23;4.03;;;17.00;98.00;;;;;;5051205;28;20454;-63
2023/05/03 09:35:59;;;;;;;8.40;4.30;;;17.20;98.00;;;;;;5051976;28;20567;-63
2023/05/03 09:38:27;;;;;;;10.27;4.70;;;17.20;98.00;;;;;;5051893;28;20461;-63
2023/05/03 09:40:54;;;;;;;9.80;4.47;;;17.10;98.00;;;;;;5051599;28;20993;-63
2023/05/03 09:43:21;;;;;;;8.30;4.40;;;17.20;98.00;;;;;;5049475;28;20466;-63
2023/05/03 09:45:48;;;;;;;10.30;4.87;;;17.10;98.00;;;;;;5051610;28;20454;-63
2023/05/03 09:48:19;;;;;;;7.80;3.60;;;17.30;98.00;;;;;;5051520;28;20527;-63
2023/05/03 09:50:46;;;;;;;8.93;4.67;;;17.40;98.00;;;;;;5051575;28;20484;-63
2023/05/03 09:53:17;;;;;;;10.47;4.53;;;17.20;98.00;;;;;;5051241;28;20457;-63
2023/05/03 09:55:44;;;;;;;9.23;4.50;;;17.40;98.00;;;;;;5050746;28;20578;-63
2023/05/03 09:58:12;;;;;;;7.20;4.00;;;17.40;98.00;;;;;;5050866;28;20484;-63
2023/05/03 10:00:41;;;;;;;10.47;4.77;;;17.40;98.00;;;;;;5050717;28;20465;-64
2023/05/03 10:03:10;;;;;;;9.43;4.33;;;17.60;98.00;;;;;;5050168;28;20482;-64
2023/05/03 10:05:43;;;;;;;8.63;4.30;;;17.80;98.00;;;;;;5050499;28;20458;-64
2023/05/03 10:08:12;;;;;;;8.07;4.30;;;18.00;98.00;;;;;;5051100;28;20540;-64
2023/05/03 10:10:49;;;;;;;7.43;4.10;;;18.20;98.00;;;;;;5050610;28;20453;-64
2023/05/03 10:13:17;;;;;;;9.30;4.20;;;18.30;98.00;;;;;;5051181;28;20461;-64
2023/05/03 10:15:45;;;;;;;8.53;4.07;;;18.40;98.00;;;;;;5050596;28;20485;-64
2023/05/03 10:18:15;;;;;;;9.00;4.47;;;18.60;98.00;;;;;;5050853;28;20465;-64
2023/05/03 10:20:49;;;;;;;8.23;4.53;;;18.60;98.00;;;;;;5049451;28;20453;-64
2023/05/03 10:23:17;;;;;;;10.10;5.23;;;18.70;98.00;;;;;;5050970;28;20454;-64
2023/05/03 10:26:15;;;;;;;8.80;4.83;;;18.70;98.00;;;;;;5050484;28;20470;-64
2023/05/03 10:28:43;;;;;;;8.33;4.23;;;19.00;98.00;;;;;;5050740;28;20546;-64
2023/05/03 10:31:45;;;;;;;8.40;4.47;;;18.90;98.00;;;;;;5050910;28;20545;-64
2023/05/03 10:34:23;;;;;;;7.70;4.27;;;18.60;98.00;;;;;;5050971;28;20453;-64
2023/05/03 10:36:52;;;;;;;8.90;4.37;;;18.60;98.00;;;;;;5050513;28;20490;-64
2023/05/03 10:39:20;;;;;;;12.10;4.60;;;18.90;98.00;;;;;;5049507;28;20516;-64
2023/05/03 10:42:00;;;;;;;9.93;4.70;;;19.20;98.00;;;;;;5050238;28;20457;-65
2023/05/03 10:44:28;;;;;;;6.63;3.80;;;19.40;98.00;;;;;;5050559;28;20460;-64
2023/05/03 10:46:56;;;;;;;7.93;4.13;;;19.60;98.00;;;;;;5050479;28;20552;-64
2023/05/03 10:49:25;;;;;;;7.23;4.10;;;;;;;;;;5049330;28;20965;-64
2023/05/03 10:51:52;;;;;;;7.10;3.90;;;20.00;98.00;;;;;;5050684;28;20911;-64
2023/05/03 10:54:19;;;;;;;10.03;4.53;;;20.20;98.00;;;;;;5050725;28;20461;-64
2023/05/03 10:56:55;;;;;;;6.53;3.90;;;20.30;98.00;;;;;;5053853;28;20486;-64
2023/05/03 10:59:24;;;;;;;19.13;4.60;;;20.40;98.00;;;;;;5054078;28;20460;-64
2023/05/03 11:01:53;;;;;;;7.57;4.57;;;20.50;98.00;;;;;;5053784;28;20462;-65
2023/05/03 11:04:41;;;;;;;8.13;4.50;;;20.00;98.00;;;;;;5053871;28;20519;-64
2023/05/03 11:07:12;;;;;;;6.43;3.73;;;19.70;98.00;;;;;;5053974;28;20481;-65
2023/05/03 11:09:39;;;;;;;6.93;3.70;;;19.40;98.00;;;;;;5053894;28;20458;-64
2023/05/03 11:12:08;;;;;;;7.17;3.80;;;19.60;98.00;;;;;;5054013;28;20461;-64
2023/05/03 11:14:38;;;;;;;7.20;3.73;;;19.60;98.00;;;;;;5053679;28;20489;-65
2023/05/03 11:17:05;;;;;;;7.10;3.80;;;19.40;98.00;;;;;;5053648;28;20998;-64
2023/05/03 11:19:34;;;;;;;7.77;4.20;;;19.00;98.00;;;;;;5053640;28;20849;-64
2023/05/03 11:22:02;;;;;;;6.93;4.30;;;18.80;98.00;;;;;;5053591;28;20457;-64
2023/05/03 11:24:29;;;;;;;6.30;3.70;;;18.90;98.00;;;;;;5053689;28;20900;-64
2023/05/03 11:26:57;;;;;;;11.50;4.37;;;19.20;98.00;;;;;;5052345;28;20449;-64
2023/05/03 11:29:25;;;;;;;6.77;3.77;;;19.70;98.00;;;;;;5053839;28;20482;-64
2023/05/03 11:31:54;;;;;;;5.20;3.50;;;20.40;98.00;;;;;;5051968;28;20461;-64
2023/05/03 11:34:21;;;;;;;5.67;3.53;;;20.70;97.90;;;;;;5053369;28;20458;-64
2023/05/03 11:36:50;;;;;;;6.37;3.50;;;20.60;97.30;;;;;;5053357;28;20516;-64
2023/05/03 11:39:17;;;;;;;7.57;3.93;;;20.50;97.20;;;;;;5053398;28;20472;-64
2023/05/03 11:41:44;;;;;;;7.53;3.97;;;21.00;98.00;;;;;;5053194;28;20941;-65
2023/05/03 11:44:11;;;;;;;7.33;4.07;;;20.90;95.40;;;;;;5053464;28;20461;-64
2023/05/03 11:46:39;;;;;;;7.70;4.03;;;21.10;95.80;;;;;;5052916;28;20459;-64
2023/05/03 11:49:17;;;;;;;5.07;3.20;;;20.90;95.90;;;;;;5051634;28;20822;-65
2023/05/03 11:51:46;;;;;;;5.33;3.53;;;20.60;96.20;;;;;;5052841;28;20465;-65
2023/05/03 11:54:13;;;;;;;7.13;3.33;;;20.20;94.90;;;;;;5053002;28;20462;-64
2023/05/03 11:56:40;;;;;;;6.17;3.47;;;20.10;97.00;;;;;;5052706;28;21003;-64
2023/05/03 11:59:07;;;;;;;4.57;3.03;;;20.10;95.50;;;;;;5052953;28;20454;-64
2023/05/03 12:01:34;;;;;;;5.70;3.40;;;20.40;96.60;;;;;;5051660;28;20453;-64
2023/05/03 12:04:03;;;;;;;4.77;3.30;;;21.20;95.10;;;;;;5052816;28;20469;-65
2023/05/03 12:06:33;;;;;;;6.33;3.23;;;21.80;91.10;;;;;;5050618;28;20458;-65
2023/05/03 12:09:02;;;;;;;6.30;3.80;;;22.30;91.20;;;;;;5052692;28;20454;-64
2023/05/03 12:11:29;;;;;;;6.17;3.10;;;22.00;89.80;;;;;;5051525;28;20486;-64
2023/05/03 12:13:58;;;;;;;6.10;3.53;;;21.70;90.30;;;;;;5052495;28;20465;-64
2023/05/03 12:16:26;;;;;;;3.80;2.60;;;21.50;89.50;;;;;;5052541;28;20482;-65
2023/05/03 12:18:55;;;;;;;5.57;3.43;;;21.80;91.90;;;;;;5052535;28;20450;-65
2023/05/03 12:21:24;;;;;;;6.53;3.50;;;21.70;88.10;;;;;;5052609;28;20803;-65
2023/05/03 12:23:52;;;;;;;6.50;3.20;;;21.80;90.10;;;;;;5052645;28;20507;-65
2023/05/03 12:26:20;;;;;;;9.03;3.40;;;22.40;88.80;;;;;;5052416;28;20454;-64
2023/05/03 12:28:48;;;;;;;4.53;3.13;;;22.50;88.00;;;;;;5052330;28;20528;-64
2023/05/03 12:31:17;;;;;;;5.70;3.40;;;22.20;86.80;;;;;;5052303;28;20453;-64
2023/05/03 12:33:44;;;;;;;6.17;2.80;;;22.10;88.10;;;;;;5052093;28;20473;-65
2023/05/03 12:36:12;;;;;;;4.70;2.93;;;21.90;88.40;;;;;;5052137;28;20485;-64
2023/05/03 12:38:39;;;;;;;5.77;3.30;;;21.70;88.60;;;;;;5052172;28;20457;-65
2023/05/03 12:41:07;;;;;;;5.07;2.93;;;21.30;88.10;;;;;;5052146;28;20461;-65
2023/05/03 12:43:34;;;;;;;4.43;2.77;;;21.60;89.60;;;;;;5052032;28;20469;-65
2023/05/03 12:46:01;;;;;;;4.40;2.90;;;22.10;88.40;;;;;;5051890;28;20520;-65
2023/05/03 12:48:30;;;;;;;4.50;2.90;;;22.40;86.80;;;;;;5050826;28;20450;-65
2023/05/03 12:50:57;;;;;;;4.10;3.00;;;22.60;84.70;;;;;;5050567;28;20484;-65
2023/05/03 12:53:25;;;;;;;4.03;2.90;;;22.70;86.30;;;;;;5051860;28;20461;-65
2023/05/03 12:55:53;;;;;;;4.27;3.10;;;22.80;84.70;;;;;;5051638;28;20813;-65
2023/05/03 12:58:22;;;;;;;3.93;2.87;;;22.90;85.40;;;;;;5051868;28;20971;-65